Date,TemperatureHighF,TemperatureAvgF,TemperatureLowF,DewpointHighF,DewpointAvgF,DewpointLowF,HumidityHigh,HumidityAvg,HumidityLow,PressureMaxIn,PressureMinIn,WindSpeedMaxMPH,WindSpeedAvgMPH,GustSpeedMaxMPH,PrecipitationSumIn
2013-1-1,47,41,31,25,12,2,76,34,17,30.29,30.19,18,8,26,0.00
2013-1-2,51,43,36,33,14,0,68,36,15,30.24,30.14,14,5,20,0.00
2013-1-3,57,44,35,33,14,3,47,31,12,30.27,30.15,14,2,16,0.00
2013-1-4,56,44,37,35,15,-3,63,34,9,30.30,30.21,11,2,13,0.00
2013-1-5,59,48,39,21,12,0,41,25,10,30.29,30.09,11,3,14,0.00
2013-1-6,50,41,37,42,34,2,95,82,14,30.13,30.03,6,2,10,0.49
2013-1-7,42,37,34,38,34,31,95,91,76,30.28,30.11,4,0,5,0.00
2013-1-8,60,44,33,41,33,26,86,66,28,30.26,30.19,7,2,9,0.00
2013-1-9,68,58,43,41,32,26,89,40,22,30.22,29.88,9,4,13,0.00
2013-1-10,43,34,31,41,31,28,95,89,81,30.16,29.86,8,3,15,0.29
2013-1-11,37,32,29,28,26,21,87,78,70,30.25,30.14,6,2,12,0.02
2013-1-12,38,31,25,27,22,17,83,69,51,30.25,30.15,5,1,8,0.01
2013-1-13,36,30,24,26,19,0,73,65,26,30.27,30.15,7,2,12,0.00
2013-1-14,38,32,24,16,4,-7,57,33,16,30.42,30.24,11,4,16,0.00
2013-1-15,48,38,28,24,12,-5,58,36,18,30.51,30.42,15,3,19,0.00
2013-1-16,59,49,37,32,18,2,57,32,11,30.43,30.25,13,4,19,0.00
2013-1-17,63,58,54,4,-4,-10,12,8,6,30.27,30.14,18,13,26,0.00
2013-1-18,65,58,52,10,3,-15,15,11,5,30.19,30.10,16,11,26,0.00
2013-1-19,66,59,54,8,4,0,12,11,8,30.22,30.12,15,9,20,0.00
2013-1-20,66,53,43,40,16,1,69,28,9,30.18,30.07,12,4,17,0.00
2013-1-21,68,55,41,36,11,0,48,20,8,30.17,30.11,16,6,26,0.00
2013-1-22,68,61,51,18,8,3,21,12,9,30.12,30.03,16,9,28,0.00
2013-1-23,63,61,57,29,17,8,33,19,13,30.06,29.98,14,6,21,0.00
2013-1-24,61,55,51,53,46,30,97,75,35,30.15,29.99,17,6,28,0.13
2013-1-25,57,52,48,51,47,42,100,83,63,30.14,30.00,12,4,17,0.04
2013-1-26,51,48,44,51,48,44,100,100,100,30.00,29.94,6,2,12,0.18
2013-1-27,48,39,36,48,37,34,100,94,86,30.11,29.94,5,2,15,0.08
2013-1-28,41,37,35,34,31,28,89,78,65,30.29,30.11,5,1,10,0.00
2013-1-29,45,39,35,38,33,30,87,80,68,30.34,30.27,9,3,14,0.00
2013-1-30,60,48,35,42,34,29,83,60,32,30.37,30.29,13,3,16,0.00
2013-1-31,60,50,42,46,36,30,67,58,45,30.29,30.18,7,1,8,0.00
2013-2-1,63,53,44,47,36,29,68,52,33,30.22,30.13,6,1,9,0.00
2013-2-2,66,56,50,48,37,24,85,53,20,30.24,30.15,9,3,14,0.00
2013-2-3,56,50,44,50,42,31,92,76,51,30.17,30.08,8,2,10,0.00
2013-2-4,62,48,39,49,40,33,94,77,37,30.17,30.06,6,1,8,0.00
2013-2-5,63,52,43,48,38,29,98,63,35,30.10,29.96,9,2,17,0.00
2013-2-6,47,42,37,46,40,28,100,91,70,30.18,30.02,7,2,12,0.00
2013-2-7,49,40,34,39,32,17,96,74,32,30.17,29.97,10,2,14,0.00
2013-2-8,41,36,34,40,35,33,100,94,79,29.97,29.86,6,3,13,0.30
2013-2-9,44,37,32,34,29,21,95,73,53,30.13,29.96,7,2,11,0.04
2013-2-10,46,37,30,30,26,22,77,64,46,30.13,30.03,7,2,11,0.00
2013-2-11,50,41,31,26,22,16,76,49,31,30.28,30.10,7,2,8,0.00
2013-2-12,55,43,35,29,23,20,59,47,26,30.37,30.27,7,1,9,0.00
2013-2-13,54,44,37,36,30,25,70,58,44,30.33,30.23,6,1,9,0.00
2013-2-14,58,47,38,40,33,24,76,58,42,30.27,30.17,7,1,10,0.00
2013-2-15,68,59,43,37,22,13,63,24,13,30.27,30.21,15,7,22,0.00
2013-2-16,67,58,44,37,21,12,51,26,12,30.23,29.99,14,6,21,0.00
2013-2-17,46,45,43,32,28,24,62,52,43,29.99,29.98,0,0,3,0.00
2013-2-23,51,44,40,38,36,34,83,75,60,30.10,29.97,9,3,13,0.00
2013-2-24,47,40,33,35,29,18,90,66,47,30.28,30.09,6,2,9,0.00
2013-2-25,54,45,35,34,24,15,52,43,30,30.31,30.13,9,3,15,0.00
2013-2-26,54,45,35,40,33,26,78,64,49,30.22,30.11,6,2,9,0.00
2013-2-27,59,49,38,35,23,10,75,37,20,30.37,30.20,8,2,9,0.00
2013-2-28,60,50,41,34,28,21,60,44,27,30.45,30.35,6,1,9,0.00
2013-3-1,64,53,41,42,33,26,60,47,33,30.43,30.26,6,1,8,0.00
2013-3-2,74,63,48,38,30,22,46,29,16,30.30,30.05,15,4,21,0.00
2013-3-3,64,56,46,41,33,20,63,43,22,30.09,29.92,7,2,15,0.00
2013-3-4,60,51,41,47,42,34,96,72,53,30.08,29.97,7,2,14,0.00
2013-3-5,66,54,42,45,36,18,75,52,21,30.05,29.88,7,2,13,0.00
2013-3-6,56,45,38,44,40,34,95,83,60,30.05,29.95,7,1,9,0.04
2013-3-7,52,45,41,45,40,31,100,84,58,29.97,29.79,5,1,7,0.00
2013-3-8,45,37,32,40,36,31,100,96,61,30.06,29.74,6,2,8,0.59
2013-3-9,44,38,34,44,37,33,100,97,88,30.36,30.06,8,2,11,0.11
2013-3-10,58,46,34,43,36,29,96,71,44,30.38,30.27,6,2,9,0.00
2013-3-11,59,50,40,47,36,22,75,60,41,30.28,30.12,7,2,10,0.00
2013-3-12,66,55,45,50,40,26,78,56,34,30.16,30.06,7,2,8,0.00
2013-3-13,75,62,51,55,38,25,57,41,23,30.17,30.06,8,2,13,0.00
2013-3-14,81,66,55,52,40,28,64,41,15,30.11,30.02,11,2,14,0.00
2013-3-15,67,60,51,57,49,40,90,68,50,30.05,29.95,8,3,13,0.00
2013-3-16,65,58,46,54,48,44,100,73,51,30.01,29.94,8,3,15,0.00
2013-3-17,62,55,43,50,41,34,93,61,48,30.08,29.96,9,3,14,0.00
2013-3-18,63,54,42,44,39,33,86,57,38,30.08,30.00,9,2,10,0.00
2013-3-19,67,57,47,46,38,30,66,49,31,30.11,30.03,8,2,16,0.00
2013-3-20,64,55,44,48,44,36,95,69,43,30.08,30.00,8,3,14,0.00
2013-3-21,54,51,47,54,48,44,100,89,70,30.01,29.91,7,4,13,0.00
2013-3-22,56,48,38,47,38,33,97,71,47,30.05,29.92,10,4,20,0.00
2013-3-23,59,48,37,38,31,27,84,55,34,30.12,30.02,7,2,14,0.00
2013-3-24,64,53,40,40,32,26,60,47,34,30.11,29.97,8,2,13,0.00
2013-3-25,68,55,45,43,36,26,62,48,32,29.99,29.89,6,1,9,0.00
2013-3-26,65,56,44,45,38,31,71,52,30,29.94,29.88,9,2,12,0.00
2013-3-27,66,57,46,47,42,39,81,59,39,29.98,29.88,8,2,14,0.00
2013-3-28,67,57,48,52,46,41,90,70,49,30.06,29.97,6,2,10,0.00
2013-3-29,73,60,48,52,43,37,81,55,33,30.07,29.98,7,1,14,0.00
2013-3-30,74,64,54,48,40,30,59,43,29,30.03,29.90,8,2,10,0.00
2013-3-31,63,54,50,51,48,43,99,80,56,30.03,29.96,6,1,9,0.10
2013-4-1,60,52,46,50,44,40,98,75,51,30.13,30.03,6,2,14,0.01
2013-4-2,62,54,45,52,46,42,100,74,56,30.13,30.05,9,2,12,0.00
2013-4-3,70,58,46,50,46,41,86,65,47,30.12,29.98,6,1,10,0.00
2013-4-4,67,60,55,51,47,36,79,63,37,30.09,29.95,7,2,9,0.00
2013-4-5,59,54,51,54,50,46,100,85,72,30.10,29.99,7,3,9,0.00
2013-4-6,61,54,47,52,45,38,100,73,54,30.14,30.04,9,3,13,0.00
2013-4-7,63,55,46,49,45,40,100,70,50,30.09,29.80,8,3,19,0.00
2013-4-8,57,44,38,44,39,32,100,83,61,29.90,29.64,10,4,16,0.16
2013-4-9,58,47,36,38,33,27,89,60,31,30.12,29.90,9,3,20,0.00
2013-4-10,69,56,41,38,31,20,63,39,23,30.19,30.05,7,2,12,0.00
2013-4-11,72,61,49,46,41,32,65,48,33,30.05,29.76,8,2,15,0.00
2013-4-12,72,60,48,51,47,44,90,62,41,29.87,29.76,7,2,10,0.00
2013-4-13,74,64,50,48,40,29,81,47,20,29.84,29.70,8,2,12,0.00
2013-4-14,65,57,46,48,41,30,94,59,34,29.80,29.70,10,4,19,0.00
2013-4-15,59,51,42,44,38,29,83,62,39,29.82,29.72,9,5,19,0.00
2013-4-16,53,44,36,34,29,24,79,57,34,30.05,29.81,8,4,18,0.00
2013-4-17,58,47,34,28,24,18,73,44,25,30.24,30.05,8,2,15,0.00
2013-4-18,68,55,42,25,19,9,50,27,13,30.27,30.17,10,3,14,0.00
2013-4-19,71,60,46,33,26,17,43,28,18,30.22,30.02,8,2,11,0.01
2013-4-20,73,62,50,46,38,28,65,42,27,30.04,29.93,7,2,13,0.02
2013-4-21,78,66,52,44,38,32,58,37,23,29.99,29.90,7,2,12,0.02
2013-4-22,79,68,54,44,36,27,58,32,21,29.94,29.77,6,2,11,0.02
2013-4-23,80,68,54,42,34,20,61,33,11,29.87,29.77,12,3,18,0.00
2013-4-24,80,67,53,44,32,12,58,32,8,29.82,29.69,12,3,23,0.02
2013-4-25,68,60,48,49,45,42,83,59,44,30.06,29.81,8,2,16,0.00
2013-4-26,74,62,49,51,47,42,88,59,39,30.15,30.05,7,2,12,0.03
2013-4-27,80,67,54,48,44,41,70,45,27,30.16,30.00,7,2,12,0.00
2013-4-28,81,70,55,50,44,34,76,42,21,30.02,29.83,7,2,12,0.02
2013-4-29,81,71,56,50,40,25,53,33,26,29.86,29.68,7,2,11,0.02
2013-4-30,79,70,57,51,44,36,65,41,29,29.76,29.65,8,3,12,0.00
2013-5-1,83,70,51,42,18,-13,63,23,3,30.06,29.76,13,5,20,0.02
2013-5-2,80,72,63,5,-2,-22,8,5,2,30.14,30.02,20,10,34,0.00
2013-5-3,84,72,57,31,18,-2,28,14,7,30.04,29.75,8,2,12,0.01
2013-5-4,84,72,58,40,32,26,41,25,12,29.75,29.50,7,2,13,0.00
2013-5-5,73,61,51,41,33,27,55,36,22,29.78,29.54,17,4,23,0.03
2013-5-6,67,57,48,51,41,34,96,57,32,29.90,29.77,7,2,12,0.07
2013-5-7,58,52,47,49,45,42,100,79,61,30.02,29.90,5,1,9,0.09
2013-5-8,66,58,49,50,47,42,95,69,51,30.07,30.00,6,2,14,0.02
2013-5-9,67,60,51,51,49,47,88,68,51,30.07,30.02,8,1,11,0.00
2013-5-10,77,66,53,54,51,48,91,59,43,30.11,30.02,7,2,13,0.03
2013-5-11,89,75,60,55,49,40,73,44,20,30.10,29.95,7,2,13,0.00
2013-5-12,88,77,63,59,50,43,70,41,23,30.05,29.90,7,2,11,0.03
2013-5-13,88,76,61,51,46,40,60,36,21,29.97,29.84,8,2,14,0.03
2013-5-14,83,73,58,48,40,29,54,33,16,29.89,29.79,9,3,19,0.00
2013-5-15,80,70,58,50,43,34,72,39,21,29.92,29.83,8,2,14,0.01
2013-5-16,68,60,50,47,43,38,73,54,33,29.91,29.85,7,2,10,0.00
2013-5-17,69,61,53,49,44,37,83,56,36,29.96,29.85,9,3,16,0.02
2013-5-18,71,61,44,41,35,24,81,41,23,30.04,29.96,9,3,14,0.00
2013-5-19,74,65,49,48,38,28,68,39,27,30.02,29.91,9,3,14,0.02
2013-5-20,84,71,54,43,36,22,65,31,13,29.97,29.84,10,3,13,0.03
2013-5-21,84,72,59,42,34,21,47,27,13,29.88,29.71,7,3,12,0.00
2013-5-22,64,56,44,39,34,17,77,46,25,29.84,29.74,10,4,18,0.02
2013-5-23,66,55,40,31,25,16,48,31,22,29.94,29.83,8,3,15,0.00
2013-5-24,71,59,44,36,32,28,64,37,25,29.96,29.88,7,2,12,0.01
2013-5-25,74,63,46,35,32,25,60,34,17,29.92,29.88,8,2,12,0.00
2013-5-26,69,60,46,44,40,32,82,48,32,30.00,29.92,8,3,17,0.03
2013-5-27,69,60,48,48,43,34,92,56,32,30.01,29.90,10,4,18,0.02
2013-5-28,65,58,53,56,51,46,95,79,63,29.92,29.82,6,4,13,0.00
2013-5-29,74,64,50,54,49,45,99,62,36,29.89,29.75,8,3,16,0.03
2013-5-30,77,66,49,50,44,38,79,48,31,29.89,29.82,8,3,15,0.00
2013-5-31,80,69,52,44,41,33,67,37,26,29.93,29.86,8,2,12,0.02
2013-6-1,90,76,62,47,44,40,50,34,20,29.90,29.72,8,2,11,0.00
2013-6-2,90,79,65,48,42,33,44,27,19,29.73,29.56,9,2,13,0.01
2013-6-3,86,76,62,49,45,36,57,35,24,29.71,29.59,8,2,12,0.03
2013-6-4,82,72,60,54,49,45,60,44,32,29.83,29.70,8,2,13,0.00
2013-6-5,83,73,59,56,53,50,80,51,36,29.87,29.78,8,2,17,0.03
2013-6-6,86,75,64,57,54,52,67,49,36,29.84,29.73,8,2,12,0.00
2013-6-7,91,79,66,58,55,52,69,45,30,29.79,29.66,7,2,12,0.03
2013-6-8,99,86,71,57,54,42,55,36,21,29.69,29.58,8,2,12,0.00
2013-6-9,94,82,67,57,40,0,60,27,3,29.70,29.61,9,3,13,0.02
2013-6-10,76,68,56,53,45,28,75,45,25,29.88,29.69,9,3,13,0.03
2013-6-11,86,74,58,52,45,35,54,37,26,29.90,29.80,8,2,12,0.00
2013-6-12,86,76,62,57,47,32,72,38,20,29.85,29.78,9,3,15,0.03
2013-6-13,79,69,56,41,33,19,56,29,12,29.95,29.84,7,2,13,0.00
2013-6-14,81,69,53,41,36,30,59,31,21,29.90,29.76,7,2,12,0.02
2013-6-15,86,74,59,38,32,22,44,24,11,29.86,29.77,7,3,12,0.00
2013-6-16,84,71,54,42,34,24,54,27,15,29.95,29.85,8,2,13,0.01
2013-6-17,81,71,54,45,39,35,69,33,23,29.98,29.88,8,3,15,0.02
2013-6-18,78,68,52,48,43,38,76,44,25,29.90,29.78,9,3,14,0.00
2013-6-19,71,61,48,45,40,36,75,48,30,29.92,29.82,9,3,13,0.00
2013-6-20,76,65,48,42,37,32,65,38,23,29.92,29.85,9,3,16,0.00
2013-6-21,79,68,52,43,38,34,70,34,23,29.89,29.81,8,3,19,0.02
2013-6-22,83,72,56,41,36,31,50,28,18,29.86,29.76,8,2,15,0.00
2013-6-23,80,71,57,48,40,34,58,33,23,29.78,29.68,8,3,12,0.02
2013-6-24,76,67,56,56,51,37,90,59,36,29.85,29.71,8,4,14,0.03
2013-6-25,83,75,56,58,55,52,91,51,35,29.93,29.84,7,3,13,0.00
2013-6-26,85,75,61,64,59,56,90,59,42,29.95,29.87,9,3,14,0.02
2013-6-27,89,77,66,62,60,58,80,57,36,29.99,29.92,8,2,13,0.00
2013-6-28,93,82,69,62,57,54,76,46,29,29.97,29.83,7,2,13,0.03
2013-6-29,97,85,72,58,53,47,56,36,20,29.86,29.72,8,2,12,0.00
2013-6-30,98,86,73,55,52,45,51,32,22,29.75,29.65,8,2,11,0.02
2013-7-1,95,85,74,56,53,49,52,34,23,29.78,29.69,8,2,11,0.03
2013-7-2,100,88,75,56,50,43,48,29,17,29.82,29.76,8,2,11,0.00
2013-7-3,96,85,72,53,48,43,46,28,19,29.80,29.66,7,2,12,0.02
2013-7-4,98,88,75,56,52,47,41,30,22,29.70,29.58,6,2,11,0.00
2013-7-5,98,86,72,59,50,22,58,31,11,29.64,29.56,7,2,11,0.02
2013-7-6,93,81,70,46,39,26,35,23,14,29.68,29.60,7,2,14,0.00
2013-7-7,97,84,65,49,37,24,37,20,11,29.74,29.66,7,2,10,0.01
2013-7-8,96,83,67,45,37,32,42,20,12,29.87,29.74,8,2,12,0.02
2013-7-9,98,85,69,47,38,23,29,20,12,29.92,29.83,7,2,13,0.00
2013-7-10,95,82,71,51,43,38,46,27,14,29.87,29.78,5,1,8,0.02
2013-7-11,88,79,72,46,42,25,35,27,15,29.84,29.74,5,1,8,0.00
2013-7-12,90,77,62,46,40,26,49,27,16,29.84,29.75,7,2,12,0.01
2013-7-13,96,82,64,48,40,34,44,25,13,29.85,29.78,7,2,8,0.00
2013-7-14,93,81,63,41,34,18,32,19,11,29.87,29.77,9,2,13,0.01
2013-7-15,94,80,64,41,33,19,38,19,12,29.80,29.65,8,2,16,0.01
2013-7-16,89,76,63,41,33,22,30,21,16,29.89,29.75,8,2,12,0.00
2013-7-17,86,74,59,52,45,34,62,37,25,29.97,29.89,9,2,13,0.01
2013-7-18,88,76,63,50,43,32,55,33,23,29.97,29.83,7,2,14,0.00
2013-7-19,92,79,66,48,43,39,49,30,19,29.88,29.73,7,2,12,0.01
2013-7-20,95,83,70,47,43,38,35,25,15,29.77,29.64,8,2,13,0.00
2013-7-21,97,84,74,54,44,39,36,24,17,29.78,29.66,8,2,11,0.01
2013-7-22,93,80,70,64,55,47,73,45,23,29.85,29.72,8,2,12,0.02
2013-7-23,91,80,69,56,52,48,57,39,26,29.89,29.81,6,2,12,0.00
2013-7-24,91,80,66,57,51,46,68,40,23,29.87,29.80,8,2,14,0.00
2013-7-25,94,82,69,53,49,45,51,33,21,29.90,29.82,8,2,16,0.00
2013-7-26,88,80,70,64,56,48,73,45,32,29.95,29.88,9,1,9,0.02
2013-7-27,94,83,71,58,52,48,59,37,23,29.90,29.72,7,2,12,0.00
2013-7-28,92,82,67,52,48,42,54,32,18,29.75,29.66,9,2,22,0.01
2013-7-29,92,80,68,49,48,45,49,34,21,29.89,29.71,8,2,14,0.00
2013-7-30,88,77,66,51,47,44,49,36,25,29.96,29.88,8,2,14,0.00
2013-7-31,87,77,64,51,45,39,60,34,21,29.96,29.85,9,2,15,0.01
2013-8-1,84,74,58,48,39,31,67,32,16,29.94,29.82,8,2,15,0.00
2013-8-2,86,73,55,42,34,28,58,26,14,29.88,29.82,7,2,12,0.01
2013-8-3,90,76,62,36,31,23,34,20,10,29.89,29.81,7,2,11,0.00
2013-8-4,90,77,61,41,34,28,37,22,11,29.89,29.81,8,2,14,0.01
2013-8-5,87,75,60,45,38,29,39,27,20,29.90,29.81,8,2,14,0.02
2013-8-6,88,76,61,46,41,30,53,31,18,29.91,29.83,7,2,13,0.00
2013-8-7,82,71,57,50,43,31,61,37,22,29.96,29.89,9,2,13,0.01
2013-8-8,82,70,55,53,46,37,84,45,21,29.92,29.82,7,2,16,0.00
2013-8-9,82,71,55,51,45,39,67,42,22,29.87,29.81,7,2,13,0.01
2013-8-10,82,71,57,52,46,43,66,42,27,29.94,29.87,8,2,17,0.00
2013-8-11,83,72,56,54,47,44,66,43,28,29.93,29.83,8,2,12,0.01
2013-8-12,85,74,60,50,46,44,63,40,24,29.91,29.84,8,2,15,0.01
2013-8-13,89,76,61,48,45,41,58,35,21,29.92,29.83,7,2,13,0.00
2013-8-14,90,78,64,48,43,34,52,31,18,29.89,29.79,7,2,10,0.02
2013-8-15,91,79,68,47,42,32,40,27,19,29.87,29.81,9,2,14,0.00
2013-8-16,90,79,68,52,44,34,40,30,24,29.89,29.82,8,2,14,0.01
2013-8-17,92,80,67,52,45,39,47,30,17,29.88,29.74,9,2,13,0.00
2013-8-18,88,78,66,51,46,41,52,33,24,29.80,29.71,12,2,12,0.01
2013-8-19,96,85,75,61,51,45,56,32,22,29.80,29.66,16,9,26,0.00
2013-8-20,95,83,72,53,48,32,49,31,18,29.77,29.68,8,2,9,0.00
2013-8-21,92,80,66,49,43,32,49,29,19,29.80,29.72,7,2,10,0.01
2013-8-22,89,80,71,50,45,36,43,31,20,29.82,29.72,9,3,15,0.00
2013-8-23,84,74,61,50,46,37,58,39,27,29.80,29.69,7,2,12,0.01
2013-8-24,87,76,64,49,43,36,50,32,22,29.81,29.70,7,2,13,0.00
2013-8-25,84,73,58,52,45,39,61,37,25,29.87,29.79,7,2,11,0.02
2013-8-26,85,74,61,57,50,38,61,44,34,29.91,29.79,8,2,12,0.01
2013-8-27,89,77,64,58,56,46,75,49,31,29.83,29.69,7,2,10,0.00
2013-8-28,87,76,64,52,49,42,59,39,27,29.86,29.74,7,2,14,0.01
2013-8-29,89,77,66,55,51,43,57,41,29,29.94,29.85,7,2,12,0.00
2013-8-30,88,77,65,57,54,51,73,46,30,29.95,29.84,8,2,14,0.02
2013-8-31,91,81,70,58,52,47,56,39,23,29.89,29.78,8,2,16,0.00
2013-9-1,87,76,66,62,57,52,80,52,33,29.83,29.76,8,1,13,0.00
2013-9-2,85,76,66,62,58,56,76,55,39,29.85,29.76,7,2,12,0.01
2013-9-3,85,74,64,61,59,55,86,59,42,29.88,29.81,7,2,11,0.00
2013-9-4,84,74,64,58,54,50,80,52,32,29.91,29.83,8,2,12,0.01
2013-9-5,86,74,64,55,52,50,67,48,31,29.90,29.82,9,2,12,0.00
2013-9-6,88,74,61,56,51,46,81,48,26,29.89,29.79,7,2,10,0.02
2013-9-7,96,81,68,50,39,30,50,25,10,29.84,29.74,6,2,10,0.00
2013-9-8,90,80,67,47,38,28,30,22,16,29.79,29.67,8,2,12,0.01
2013-9-9,90,80,68,50,43,37,48,28,19,29.74,29.63,9,2,14,0.01
2013-9-10,91,79,67,46,43,40,43,29,18,29.78,29.66,7,2,11,0.00
2013-9-11,84,72,62,48,43,40,51,36,23,29.89,29.78,8,2,13,0.01
2013-9-12,84,71,60,52,47,42,59,44,24,29.91,29.80,7,2,12,0.00
2013-9-13,84,74,62,52,49,44,62,43,27,29.85,29.68,8,2,13,0.01
2013-9-14,88,77,67,53,50,48,54,41,27,29.71,29.61,7,2,9,0.00
2013-9-15,86,76,67,54,51,49,58,43,29,29.76,29.67,8,2,12,0.01
2013-9-16,81,71,60,54,49,40,71,48,34,29.79,29.71,7,2,12,0.02
2013-9-17,78,69,59,52,48,41,66,47,34,29.77,29.69,8,2,14,0.00
2013-9-18,74,63,50,49,45,41,79,53,37,29.84,29.75,8,2,12,0.01
2013-9-19,82,69,56,45,42,38,59,40,24,29.84,29.73,6,2,11,0.00
2013-9-20,85,73,60,45,39,32,46,30,18,29.76,29.69,9,2,15,0.02
2013-9-21,74,63,53,52,46,39,94,55,36,29.80,29.69,9,3,14,0.14
2013-9-22,64,55,49,51,46,44,96,73,51,29.97,29.78,6,3,12,0.01
2013-9-23,73,60,49,48,46,44,88,63,39,30.00,29.92,7,2,11,0.01
2013-9-24,81,68,56,48,43,34,63,43,19,29.97,29.78,7,2,11,0.00
2013-9-25,67,58,50,48,43,38,86,59,41,29.80,29.68,9,4,15,0.02
2013-9-26,61,54,47,42,37,32,80,54,38,29.96,29.71,9,3,15,0.00
2013-9-27,68,57,46,36,34,31,62,43,27,30.08,29.95,8,2,13,0.00
2013-9-28,76,63,51,35,31,22,50,32,18,30.08,29.99,7,2,12,0.00
2013-9-29,79,68,55,33,27,16,37,22,14,30.07,29.98,7,3,12,0.01
2013-9-30,74,64,50,54,43,29,76,49,24,30.01,29.88,8,2,12,0.01
2013-10-1,73,64,52,54,50,47,85,63,49,29.94,29.85,7,2,13,0.00
2013-10-2,71,62,52,53,48,42,97,62,39,29.93,29.85,8,3,11,0.02
2013-10-3,66,58,51,42,37,31,61,45,32,29.94,29.85,10,3,18,0.00
2013-10-4,72,63,48,36,14,4,63,19,7,30.11,29.93,20,11,27,0.00
2013-10-5,77,68,60,18,12,5,19,12,7,30.17,30.09,21,13,30,0.00
2013-10-6,79,71,61,22,14,9,18,12,8,30.10,29.95,15,6,20,0.00
2013-10-7,78,66,57,26,18,8,28,17,9,29.95,29.83,7,2,11,0.01
2013-10-8,75,63,52,32,28,23,40,27,17,29.85,29.66,8,2,12,0.00
2013-10-9,58,50,42,44,38,29,97,67,33,29.77,29.56,8,2,17,0.20
2013-10-10,62,51,41,45,40,36,98,70,41,30.00,29.77,8,2,11,0.00
2013-10-11,67,56,46,41,38,35,74,53,36,30.05,29.95,7,2,11,0.02
2013-10-12,69,58,49,41,38,33,67,48,31,29.98,29.86,7,2,10,0.00
2013-10-13,62,54,46,41,39,36,78,58,41,30.06,29.84,8,2,13,0.00
2013-10-14,69,58,45,40,36,29,82,48,26,30.10,29.99,7,2,12,0.01
2013-10-15,72,61,49,36,31,18,58,35,17,30.03,29.93,8,3,13,0.00
2013-10-16,75,64,56,28,21,17,27,19,12,30.09,29.99,13,5,18,0.00
2013-10-17,72,60,51,33,29,21,48,32,21,30.05,29.95,7,2,11,0.00
2013-10-18,77,63,51,32,28,20,43,27,16,30.03,29.97,6,2,9,0.00
2013-10-19,79,65,54,33,24,17,33,22,12,30.06,29.97,6,2,11,0.00
2013-10-20,74,63,54,35,29,15,46,29,18,30.01,29.90,8,2,10,0.01
2013-10-21,80,65,53,30,21,12,39,19,12,29.96,29.88,8,2,9,0.01
2013-10-22,82,69,60,33,21,14,26,17,9,29.96,29.85,12,3,19,0.00
2013-10-23,76,63,54,39,29,20,43,28,17,29.91,29.84,7,1,11,0.02
2013-10-24,73,63,55,38,34,29,45,35,23,30.03,29.90,8,2,12,0.00
2013-10-25,59,56,54,36,32,25,47,40,30,30.10,30.03,3,1,6,0.02
2013-10-26,73,61,54,44,34,22,58,38,17,30.11,30.00,7,1,9,0.00
2013-10-27,74,62,54,41,33,24,54,33,17,30.00,29.65,7,2,12,0.01
2013-10-28,56,47,44,45,41,34,99,80,48,29.88,29.64,7,3,14,0.17
2013-10-29,52,47,44,45,42,36,100,84,64,30.02,29.88,5,2,10,0.12
2013-10-30,57,48,40,44,40,36,89,74,60,30.13,30.01,5,1,7,0.00
2013-10-31,60,50,42,42,39,35,87,67,49,30.19,30.09,6,2,8,0.00
2013-11-1,74,61,45,40,29,23,74,32,15,30.15,30.02,13,5,22,0.00
2013-11-2,70,61,51,37,29,23,48,31,20,30.02,29.85,7,2,11,0.00
2013-11-3,57,50,42,42,37,34,82,64,47,29.95,29.84,8,2,15,0.00
2013-11-4,52,44,40,36,30,25,75,57,40,30.08,29.85,7,2,14,0.00
2013-11-5,62,51,39,31,18,6,73,31,13,30.25,30.08,10,3,26,0.00
2013-11-6,71,62,53,18,12,6,18,14,10,30.26,30.16,15,8,27,0.00
2013-11-7,73,63,52,33,22,15,34,21,14,30.16,30.02,14,6,24,0.00
2013-11-8,66,56,49,32,25,19,44,30,22,30.04,29.95,6,1,12,0.01
2013-11-9,72,60,51,30,17,4,27,19,9,30.04,29.96,6,1,10,0.00
2013-11-10,75,63,52,21,14,6,28,16,8,30.08,30.00,14,3,25,0.01
2013-11-11,76,62,48,33,22,15,36,22,11,30.16,30.03,14,2,24,0.00
2013-11-12,73,60,51,38,30,13,49,34,10,30.25,30.11,11,2,18,0.00
2013-11-13,63,54,47,41,36,29,66,50,38,30.21,30.09,7,1,12,0.01
2013-11-14,72,56,48,39,34,28,66,46,20,30.10,29.81,8,1,13,0.00
2013-11-15,56,48,40,44,40,37,91,73,58,29.81,29.69,9,2,15,0.00
2013-11-16,56,48,38,41,36,32,94,64,41,29.93,29.75,9,2,17,0.00
2013-11-17,57,48,40,39,36,33,77,62,45,30.10,29.93,6,2,8,0.02
2013-11-18,59,52,44,40,38,36,78,60,48,30.13,30.02,9,2,14,0.01
2013-11-19,55,47,40,44,41,37,92,81,64,30.09,29.98,8,2,12,0.00
2013-11-20,59,51,44,51,45,40,100,82,55,29.99,29.84,7,2,9,0.19
2013-11-21,51,48,44,51,47,38,100,96,76,29.93,29.81,13,4,16,0.56
2013-11-22,50,47,42,42,36,31,97,66,51,30.00,29.90,11,6,17,0.00
2013-11-23,51,48,45,36,34,30,71,59,49,30.11,29.96,13,7,22,0.00
2013-11-24,55,48,42,39,35,32,75,62,44,30.25,30.10,8,2,10,0.00
2013-11-25,54,47,41,42,36,32,75,66,48,30.31,30.25,6,2,9,0.00
2013-11-26,66,56,41,34,29,22,70,39,20,30.27,30.07,16,8,25,0.00
2013-11-27,63,58,54,31,29,27,39,34,28,30.07,29.85,21,14,30,0.00
2013-11-28,59,56,53,32,30,26,42,37,32,30.05,29.85,18,11,28,0.00
2013-11-29,63,55,46,38,31,28,60,41,27,30.20,30.04,13,5,20,0.00
2013-11-30,59,50,44,39,33,30,70,54,34,30.27,30.16,6,1,8,0.00
2013-12-1,57,49,44,40,32,27,61,52,40,30.33,30.24,6,1,9,0.00
2013-12-2,61,51,42,36,30,24,60,45,25,30.26,29.92,6,1,7,0.00
2013-12-3,55,46,36,46,40,28,98,78,42,29.91,29.67,9,4,28,0.23
2013-12-4,40,34,28,34,25,20,94,70,50,30.07,29.81,6,1,10,0.00
2013-12-5,36,29,24,24,20,15,82,68,57,30.21,30.05,7,1,11,0.00
2013-12-6,40,30,24,20,14,6,68,52,27,30.25,30.17,6,1,11,0.00
2013-12-7,37,33,27,35,25,14,98,72,48,30.20,29.99,7,2,15,0.35
2013-12-8,35,29,24,26,20,13,86,69,48,30.33,30.19,5,1,7,0.05
2013-12-9,42,37,25,16,3,-10,66,26,12,30.44,30.30,21,11,27,0.01
2013-12-10,50,41,32,25,9,-7,59,30,12,30.42,30.20,15,5,23,0.00
2013-12-11,57,52,44,13,9,4,25,18,15,30.25,30.18,16,9,23,0.00
2013-12-12,58,49,40,27,16,9,43,28,17,30.21,30.14,11,3,16,0.00
2013-12-13,55,42,36,30,22,13,61,45,22,30.33,30.16,11,2,16,0.00
2013-12-14,62,54,41,28,18,13,45,25,16,30.39,30.30,15,5,23,0.00
2013-12-15,67,57,50,33,19,12,43,24,12,30.33,30.20,10,3,15,0.00
2013-12-16,72,64,59,19,16,11,21,16,10,30.22,30.11,13,6,17,0.00
2013-12-17,74,66,58,27,17,11,27,16,10,30.14,29.96,15,6,23,0.00
2013-12-18,69,59,50,38,26,19,47,30,15,29.98,29.67,8,1,10,0.00
2013-12-19,50,43,38,40,36,28,97,80,44,29.89,29.63,7,1,11,0.01
2013-12-20,42,37,33,39,33,25,100,86,59,30.05,29.87,5,1,6,0.00
2013-12-21,52,41,33,36,32,29,90,71,47,30.12,30.00,7,1,8,0.00
2013-12-22,58,47,39,34,30,24,74,53,30,30.32,30.12,8,1,11,0.00
2013-12-23,64,55,47,34,29,23,52,37,26,30.36,30.27,12,4,17,0.00
2013-12-24,60,50,40,37,31,26,67,51,27,30.29,30.22,10,2,16,0.00
2013-12-25,69,62,56,27,12,-2,28,15,8,30.29,30.19,17,11,24,0.00
2013-12-26,70,61,54,16,1,-6,17,9,6,30.22,30.12,14,6,19,0.00
2013-12-27,68,57,49,30,9,-7,35,16,6,30.20,30.08,7,2,10,0.00
2013-12-28,56,48,40,37,20,5,65,35,14,30.10,30.00,6,1,8,0.00
2013-12-29,65,55,41,23,6,3,35,15,9,30.19,30.10,13,6,19,0.00
2013-12-30,68,54,47,19,7,-3,23,15,6,30.25,30.18,8,2,14,0.00
2013-12-31,60,49,46,25,13,9,37,24,15,30.23,30.13,4,1,7,0.00
2014-1-1,69,55,43,29,17,8,37,22,11,30.19,30.12,13,3,17,0.00
2014-1-2,69,57,51,34,25,20,44,29,17,30.15,30.02,13,4,16,0.00